Terminal Aerodrome Forecast
Issued by NWS

Home | Current Version | Previous Version | Text Only | Print | Product List | Glossary On
Versions: 1 2 3 4 5 6 7 8 9 10 11 12 13 14 15 16 17 18 19 20 21 22 23 24 25 26
000
FTUS41 KPBZ 101100
TAFDUJ
TAF
KDUJ 101134Z 1012/1112 08003KT 1/4SM FG VV002
     FM101300 05002KT 1 1/2SM BR FEW004 SCT250
     FM101400 36003KT P6SM SCT060
     FM110600 09002KT 1 1/2SM BR SKC
     FM110800 00000KT 1/2SM FG SKC=

USA.gov is the U.S. government's official web portal to all federal, state and local government web resources and services.